Weslaco Annex Farm's Hourly Summary for Saturday, March 18, 2017
Hour Temp
(f)
RH
(%)
Solar Rad.
(MJ/m2)
Rainfall
(in)
Wind
(mph)
3/18/2017 12:00 AM 68 93 0 0 1.7
3/18/2017 1:00 AM 67 95 0 0 1.72
3/18/2017 2:00 AM 67 97 0 0 1.91
3/18/2017 3:00 AM 68 97 0 0 3.02
3/18/2017 4:00 AM 68 98 0 0 3.11
3/18/2017 5:00 AM 68 98 0 0 3.27
3/18/2017 6:00 AM 68 98 0 0 2.97
3/18/2017 7:00 AM 67 99 0.01 0 3
3/18/2017 8:00 AM 68 99 0.2 0 1.96
3/18/2017 9:00 AM 73 92 0.59 0 4.45
3/18/2017 10:00 AM 76 81 0.72 0 9.11
3/18/2017 11:00 AM 79 70 1.13 0 8.26
3/18/2017 12:00 PM 82 62 1.34 0 8.33
3/18/2017 1:00 PM 83 58 1.35 0 8.15
3/18/2017 2:00 PM 84 53 1.51 0 9.1
3/18/2017 3:00 PM 84 54 1.27 0 8.42
3/18/2017 4:00 PM 83 53 1.07 0 8.26
3/18/2017 5:00 PM 83 53 0.81 0 5.64
3/18/2017 6:00 PM 80 59 0.28 0 5.1
3/18/2017 7:00 PM 76 66 0.04 0 4.07
3/18/2017 8:00 PM 73 74 0 0 3.36
3/18/2017 9:00 PM 71 82 0 0 2.19
3/18/2017 10:00 PM 69 88 0 0 2.29
3/18/2017 11:00 PM 69 91 0 0 2.83
Data Summary 73 79 10.32 0.00 4.68